createdAt,value
2022-12-24T00:01:01.018Z,75.81
2022-12-24T00:03:28.155Z,75.50
2022-12-24T00:05:54.934Z,77.28
2022-12-24T00:08:21.984Z,77.20
2022-12-24T00:10:51.397Z,75.86
2022-12-24T00:13:18.332Z,75.45
2022-12-24T00:15:45.375Z,75.11
2022-12-24T00:18:12.116Z,75.06
2022-12-24T00:20:38.906Z,73.73
2022-12-24T00:23:05.560Z,73.37
2022-12-24T00:25:32.158Z,74.27
2022-12-24T00:27:58.945Z,73.72
2022-12-24T00:30:25.737Z,73.12
2022-12-24T00:32:52.397Z,73.13
2022-12-24T00:35:20.529Z,73.96
2022-12-24T00:37:48.913Z,72.02
2022-12-24T00:40:16.992Z,72.03
2022-12-24T00:42:47.578Z,72.22
2022-12-24T00:45:14.375Z,72.41
2022-12-24T00:47:41.259Z,71.01
2022-12-24T00:50:08.742Z,70.54
2022-12-24T00:52:35.625Z,70.18
2022-12-24T00:55:02.474Z,69.22
2022-12-24T00:57:30.472Z,68.71
2022-12-24T00:59:57.076Z,69.67
2022-12-24T01:02:24.104Z,69.34
2022-12-24T01:05:10.131Z,69.24
2022-12-24T01:07:42.195Z,69.71
2022-12-24T01:10:09.452Z,70.21
2022-12-24T01:12:36.501Z,70.35
2022-12-24T01:15:04.483Z,71.41
2022-12-24T01:17:33.547Z,72.01
2022-12-24T01:20:00.394Z,71.07
2022-12-24T01:22:27.185Z,71.14
2022-12-24T01:24:53.883Z,70.56
2022-12-24T01:27:20.618Z,70.47
2022-12-24T01:29:47.276Z,70.58
2022-12-24T01:32:14.081Z,70.98
2022-12-24T01:34:40.908Z,71.57
2022-12-24T01:37:07.531Z,72.14
2022-12-24T01:39:34.476Z,71.32
2022-12-24T01:42:19.995Z,71.78
2022-12-24T01:44:51.307Z,71.30
2022-12-24T01:47:22.377Z,71.24
2022-12-24T01:49:56.343Z,70.64
2022-12-24T01:52:29.427Z,70.30
2022-12-24T01:55:05.018Z,70.57
2022-12-24T01:57:54.907Z,70.48
2022-12-24T02:00:22.098Z,69.98
2022-12-24T02:02:52.655Z,70.47
2022-12-24T02:05:26.191Z,70.83
2022-12-24T02:07:53.006Z,70.70
2022-12-24T02:10:19.708Z,70.56
2022-12-24T02:12:47.272Z,70.44
2022-12-24T02:15:17.466Z,71.38
2022-12-24T02:17:51.025Z,71.02
2022-12-24T02:20:53.784Z,71.11
2022-12-24T02:23:57.404Z,71.80
2022-12-24T02:27:11.912Z,71.59
2022-12-24T02:30:03.937Z,71.58
2022-12-24T02:32:54.063Z,71.99
2022-12-24T02:35:53.714Z,71.25
2022-12-24T02:38:32.278Z,71.64
2022-12-24T02:41:05.833Z,71.73
2022-12-24T02:43:36.885Z,71.60
2022-12-24T02:46:08.983Z,71.89
2022-12-24T02:48:38.489Z,72.20
2022-12-24T02:51:09.243Z,71.82
2022-12-24T02:53:36.703Z,71.04
2022-12-24T02:56:25.242Z,72.09
2022-12-24T02:59:03.293Z,70.44
2022-12-24T03:02:03.489Z,71.77
2022-12-24T03:05:04.684Z,71.51
2022-12-24T03:07:37.939Z,71.91
2022-12-24T03:10:29.073Z,72.00
2022-12-24T03:13:06.644Z,72.21
2022-12-24T03:15:34.144Z,72.63
2022-12-24T03:18:03.308Z,73.15
2022-12-24T03:20:36.855Z,74.40
2022-12-24T03:23:04.641Z,74.33
2022-12-24T03:25:33.406Z,75.68
2022-12-24T03:28:03.560Z,75.23
2022-12-24T03:30:30.882Z,75.79
2022-12-24T03:32:57.569Z,75.60
2022-12-24T03:35:24.295Z,76.44
2022-12-24T03:37:51.020Z,75.82
2022-12-24T03:40:17.964Z,75.96
2022-12-24T03:42:44.758Z,76.00
2022-12-24T03:45:11.494Z,74.97
2022-12-24T03:47:38.295Z,74.95
2022-12-24T03:50:06.457Z,74.95
2022-12-24T03:52:33.066Z,75.18
2022-12-24T03:54:59.857Z,75.19
2022-12-24T03:57:26.517Z,75.54
2022-12-24T03:59:53.244Z,75.56
2022-12-24T04:02:20.055Z,76.05
2022-12-24T04:04:47.087Z,75.09
2022-12-24T04:07:13.812Z,75.16
2022-12-24T04:09:43.345Z,75.08
2022-12-24T04:12:11.144Z,75.45
2022-12-24T04:14:38.225Z,75.35
2022-12-24T04:17:06.175Z,75.07
2022-12-24T04:19:32.910Z,75.38
2022-12-24T04:21:59.533Z,75.48
2022-12-24T04:24:26.147Z,75.39
2022-12-24T04:26:52.712Z,75.75
2022-12-24T04:29:19.438Z,75.92
2022-12-24T04:31:46.163Z,76.13
2022-12-24T04:34:12.792Z,76.35
2022-12-24T04:36:39.408Z,76.69
2022-12-24T04:39:06.073Z,76.33
2022-12-24T04:41:32.821Z,77.12
2022-12-24T04:43:59.539Z,77.63
2022-12-24T04:46:30.506Z,78.74
2022-12-24T04:48:57.510Z,78.56
2022-12-24T04:51:26.127Z,79.31
2022-12-24T04:53:53.284Z,78.42
2022-12-24T04:56:22.277Z,79.12
2022-12-24T04:58:50.145Z,79.66
2022-12-24T05:01:23.372Z,80.32
2022-12-24T05:03:50.405Z,80.92
2022-12-24T05:06:19.935Z,81.58
2022-12-24T05:08:46.668Z,81.66
2022-12-24T05:11:16.734Z,82.68
2022-12-24T05:13:47.454Z,83.69
2022-12-24T05:16:16.561Z,84.51
2022-12-24T05:18:43.425Z,83.48
2022-12-24T05:21:11.649Z,83.35
2022-12-24T05:23:56.911Z,84.13
2022-12-24T05:26:32.829Z,83.89
2022-12-24T05:29:00.862Z,83.79
2022-12-24T05:31:29.990Z,85.66
2022-12-24T05:33:56.914Z,85.48
2022-12-24T05:36:23.909Z,85.93
2022-12-24T05:38:51.283Z,86.69
2022-12-24T05:41:18.900Z,86.27
2022-12-24T05:43:45.678Z,85.73
2022-12-24T05:46:15.719Z,85.06
2022-12-24T05:48:42.460Z,85.80
2022-12-24T05:51:11.272Z,85.11
2022-12-24T05:53:38.848Z,84.30
2022-12-24T05:56:07.553Z,84.81
2022-12-24T05:58:34.514Z,85.53
2022-12-24T06:01:03.400Z,86.49
2022-12-24T06:03:30.799Z,86.84
2022-12-24T06:06:02.350Z,87.36
2022-12-24T06:08:29.865Z,86.36
2022-12-24T06:10:58.151Z,87.19
2022-12-24T06:13:25.767Z,88.31
2022-12-24T06:15:56.796Z,88.53
2022-12-24T06:18:23.923Z,88.28
2022-12-24T06:20:52.070Z,88.51
2022-12-24T06:23:19.202Z,89.09
2022-12-24T06:25:46.662Z,88.82
2022-12-24T06:28:13.763Z,88.08
2022-12-24T06:30:41.221Z,89.02
2022-12-24T06:33:08.286Z,87.30
2022-12-24T06:35:34.923Z,86.86
2022-12-24T06:38:01.544Z,87.94
2022-12-24T06:40:28.688Z,88.60
2022-12-24T06:42:55.363Z,87.09
2022-12-24T06:45:21.969Z,84.89
2022-12-24T06:47:48.528Z,83.41
2022-12-24T06:50:15.185Z,83.58
2022-12-24T06:52:41.993Z,83.37
2022-12-24T06:55:09.055Z,84.42
2022-12-24T06:57:35.650Z,85.88
2022-12-24T07:00:02.217Z,84.44
2022-12-24T07:02:31.168Z,84.87
2022-12-24T07:04:57.877Z,84.87
2022-12-24T07:07:24.571Z,84.99
2022-12-24T07:09:51.405Z,85.00
2022-12-24T07:12:18.022Z,85.56
2022-12-24T07:14:44.594Z,85.51
2022-12-24T07:17:11.354Z,85.36
2022-12-24T07:19:38.086Z,84.50
2022-12-24T07:22:07.736Z,84.15
2022-12-24T07:24:36.940Z,83.38
2022-12-24T07:27:04.628Z,83.72
2022-12-24T07:29:31.436Z,83.93
2022-12-24T07:31:58.119Z,84.07
2022-12-24T07:34:24.813Z,85.14
2022-12-24T07:36:51.600Z,83.98
2022-12-24T07:39:18.269Z,84.39
2022-12-24T07:41:45.034Z,85.15
2022-12-24T07:44:14.798Z,85.75
2022-12-24T07:46:41.676Z,85.77
2022-12-24T07:49:08.322Z,85.95
2022-12-24T07:51:34.988Z,87.20
2022-12-24T07:54:01.627Z,87.02
2022-12-24T07:56:28.606Z,83.56
2022-12-24T07:58:55.263Z,83.30
2022-12-24T08:01:22.016Z,82.07
2022-12-24T08:03:51.292Z,83.64
2022-12-24T08:06:18.076Z,83.06
2022-12-24T08:08:44.720Z,82.81
2022-12-24T08:11:12.199Z,81.36
2022-12-24T08:13:38.889Z,81.47
2022-12-24T08:16:06.229Z,81.55
2022-12-24T08:18:33.686Z,82.25
2022-12-24T08:21:00.274Z,82.46
2022-12-24T08:23:26.923Z,82.39
2022-12-24T08:25:53.519Z,82.49
2022-12-24T08:28:20.963Z,83.08
2022-12-24T08:30:50.080Z,82.04
2022-12-24T08:33:17.154Z,82.21
2022-12-24T08:35:55.490Z,81.63
2022-12-24T08:38:22.499Z,81.85
2022-12-24T08:40:50.416Z,82.37
2022-12-24T08:43:18.062Z,82.59
2022-12-24T08:45:46.239Z,82.48
2022-12-24T08:48:13.080Z,82.70
2022-12-24T08:50:40.984Z,82.23
2022-12-24T08:53:09.041Z,82.22
2022-12-24T08:55:35.931Z,81.78
2022-12-24T08:58:02.553Z,82.30
2022-12-24T09:00:29.279Z,82.14
2022-12-24T09:02:56.875Z,81.82
2022-12-24T09:05:23.689Z,80.38
2022-12-24T09:07:50.307Z,79.84
2022-12-24T09:10:17.136Z,79.55
2022-12-24T09:12:43.801Z,79.48
2022-12-24T09:15:11.010Z,79.10
2022-12-24T09:17:37.868Z,78.93
2022-12-24T09:20:06.859Z,79.09
2022-12-24T09:22:38.550Z,79.07
2022-12-24T09:25:06.293Z,78.94
2022-12-24T09:27:32.978Z,78.94
2022-12-24T09:29:59.637Z,79.45
2022-12-24T09:32:26.376Z,79.16
2022-12-24T09:34:52.997Z,78.63
2022-12-24T09:37:19.650Z,78.82
2022-12-24T09:39:46.278Z,78.68
2022-12-24T09:42:45.898Z,79.29
2022-12-24T09:45:28.334Z,80.13
2022-12-24T09:48:04.352Z,79.67
2022-12-24T09:51:09.778Z,79.67
2022-12-24T09:53:50.296Z,79.69
2022-12-24T09:56:40.642Z,80.15
2022-12-24T09:59:14.572Z,80.40
2022-12-24T10:01:41.403Z,80.07
2022-12-24T10:04:19.596Z,79.07
2022-12-24T10:06:51.352Z,77.12
2022-12-24T10:09:37.064Z,78.05
2022-12-24T10:12:17.201Z,77.78
2022-12-24T10:15:05.745Z,76.94
2022-12-24T10:17:40.902Z,76.71
2022-12-24T10:20:47.404Z,77.18
2022-12-24T10:23:26.471Z,77.49
2022-12-24T10:26:11.002Z,78.11
2022-12-24T10:28:44.476Z,77.08
2022-12-24T10:31:11.750Z,77.47
2022-12-24T10:33:43.235Z,75.25
2022-12-24T10:36:18.528Z,74.99
2022-12-24T10:38:46.058Z,74.08
2022-12-24T10:41:14.243Z,74.26
2022-12-24T10:43:44.848Z,74.10
2022-12-24T10:46:23.145Z,74.45
2022-12-24T10:49:05.520Z,73.79
2022-12-24T10:51:47.653Z,73.53
2022-12-24T10:54:22.778Z,73.04
2022-12-24T10:57:02.802Z,72.92
2022-12-24T10:59:43.439Z,72.27
2022-12-24T11:02:35.494Z,72.61
2022-12-24T11:05:05.486Z,72.33
2022-12-24T11:07:32.800Z,72.51
2022-12-24T11:10:05.392Z,72.15
2022-12-24T11:12:35.738Z,72.12
2022-12-24T11:15:24.397Z,71.68
2022-12-24T11:18:06.236Z,72.02
2022-12-24T11:20:35.039Z,72.25
2022-12-24T11:23:03.253Z,71.98
2022-12-24T11:25:32.158Z,71.38
2022-12-24T11:28:24.003Z,71.58
2022-12-24T11:31:01.416Z,72.03
2022-12-24T11:33:30.277Z,72.79
2022-12-24T11:36:06.618Z,73.34
2022-12-24T11:38:34.992Z,74.29
2022-12-24T11:41:08.130Z,74.65
2022-12-24T11:43:45.569Z,74.93
2022-12-24T11:46:13.889Z,75.24
2022-12-24T11:48:40.669Z,76.82
2022-12-24T11:51:20.545Z,77.36
2022-12-24T11:54:00.926Z,77.01
2022-12-24T11:56:44.973Z,76.96
2022-12-24T11:59:25.042Z,76.54
2022-12-24T12:01:58.465Z,75.81
2022-12-24T12:04:29.653Z,74.90
2022-12-24T12:07:15.429Z,73.95
2022-12-24T12:09:50.772Z,74.49
2022-12-24T12:12:37.957Z,74.92
2022-12-24T12:15:16.562Z,75.45
2022-12-24T12:18:11.868Z,75.82
2022-12-24T12:20:46.431Z,76.00
2022-12-24T12:23:30.542Z,74.97
2022-12-24T12:26:07.910Z,73.91
2022-12-24T12:29:17.003Z,73.39
2022-12-24T12:32:01.236Z,74.08
2022-12-24T12:34:36.108Z,73.86
2022-12-24T12:37:40.143Z,73.90
2022-12-24T12:40:17.678Z,73.42
2022-12-24T12:43:09.566Z,73.34
2022-12-24T12:45:55.260Z,74.17
2022-12-24T12:48:40.636Z,74.18
2022-12-24T12:51:32.517Z,74.81
2022-12-24T12:54:17.732Z,74.85
2022-12-24T12:56:52.119Z,74.77
2022-12-24T12:59:24.672Z,75.79
2022-12-24T13:02:09.789Z,76.34
2022-12-24T13:04:58.150Z,76.24
2022-12-24T13:07:38.389Z,76.31
2022-12-24T13:10:27.089Z,76.58
2022-12-24T13:13:20.675Z,77.10
2022-12-24T13:16:23.885Z,77.58
2022-12-24T13:18:56.321Z,77.75
2022-12-24T13:21:25.515Z,78.40
2022-12-24T13:24:06.291Z,78.98
2022-12-24T13:26:33.095Z,78.74
2022-12-24T13:29:40.256Z,79.12
2022-12-24T13:32:19.288Z,79.55
2022-12-24T13:34:53.375Z,80.34
2022-12-24T13:37:32.378Z,80.66
2022-12-24T13:40:08.570Z,81.16
2022-12-24T13:43:06.158Z,80.75
2022-12-24T13:45:38.859Z,81.19
2022-12-24T13:48:08.488Z,81.92
2022-12-24T13:50:36.948Z,81.34
2022-12-24T13:53:06.169Z,81.68
2022-12-24T13:55:34.234Z,82.84
2022-12-24T13:58:03.881Z,81.86
2022-12-24T14:00:36.541Z,82.36
2022-12-24T14:03:06.414Z,82.69
2022-12-24T14:05:46.483Z,82.47
2022-12-24T14:08:25.543Z,83.07
2022-12-24T14:11:00.931Z,82.67
2022-12-24T14:13:39.926Z,83.17
2022-12-24T14:16:15.931Z,83.94
2022-12-24T14:18:46.142Z,83.66
2022-12-24T14:21:21.806Z,83.79
2022-12-24T14:24:07.130Z,84.78
2022-12-24T14:26:43.985Z,85.52
2022-12-24T14:29:25.381Z,87.10
2022-12-24T14:31:58.345Z,87.81
2022-12-24T14:34:26.056Z,86.43
2022-12-24T14:36:55.818Z,85.54
2022-12-24T14:39:28.687Z,85.99
2022-12-24T14:42:17.740Z,87.29
2022-12-24T14:44:59.561Z,86.73
2022-12-24T14:47:40.322Z,86.15
2022-12-24T14:50:28.837Z,85.48
2022-12-24T14:53:25.348Z,87.02
2022-12-24T14:55:53.498Z,88.26
2022-12-24T14:58:28.584Z,87.70
2022-12-24T15:00:59.728Z,85.89
2022-12-24T15:03:29.733Z,85.70
2022-12-24T15:06:00.569Z,85.15
2022-12-24T15:08:45.733Z,85.21
2022-12-24T15:11:22.478Z,85.17
2022-12-24T15:13:55.790Z,85.42
2022-12-24T15:16:28.855Z,86.08
2022-12-24T15:19:00.782Z,86.88
2022-12-24T15:21:41.113Z,86.55
2022-12-24T15:24:32.290Z,86.37
2022-12-24T15:27:00.263Z,86.15
2022-12-24T15:29:29.431Z,86.14
2022-12-24T15:31:58.820Z,86.71
2022-12-24T15:34:44.137Z,87.36
2022-12-24T15:37:10.702Z,86.88
2022-12-24T15:39:39.373Z,87.56
2022-12-24T15:42:13.950Z,87.20
2022-12-24T15:44:55.525Z,87.12
2022-12-24T15:47:45.699Z,88.54
2022-12-24T15:50:33.004Z,89.18
2022-12-24T15:53:19.986Z,87.32
2022-12-24T15:56:12.920Z,87.06
2022-12-24T15:58:44.517Z,87.48
2022-12-24T16:01:16.266Z,88.50
2022-12-24T16:03:59.147Z,89.49
2022-12-24T16:06:28.300Z,88.11
2022-12-24T16:08:56.469Z,88.18
2022-12-24T16:11:35.060Z,88.73
2022-12-24T16:14:12.539Z,87.02
2022-12-24T16:16:41.902Z,87.77
2022-12-24T16:19:20.222Z,87.67
2022-12-24T16:21:53.426Z,88.31
2022-12-24T16:24:29.364Z,89.24
2022-12-24T16:26:56.855Z,88.91
2022-12-24T16:29:24.447Z,86.92
2022-12-24T16:31:54.310Z,88.04
2022-12-24T16:34:24.663Z,87.98
2022-12-24T16:36:51.299Z,86.95
2022-12-24T16:39:23.900Z,86.28
2022-12-24T16:42:14.856Z,87.53
2022-12-24T16:44:42.328Z,88.27
2022-12-24T16:47:22.705Z,89.04
2022-12-24T16:49:50.564Z,89.38
2022-12-24T16:52:23.469Z,89.59
2022-12-24T16:54:50.650Z,89.41
2022-12-24T16:57:18.230Z,88.88
2022-12-24T16:59:45.547Z,88.80
2022-12-24T17:02:17.784Z,89.13
2022-12-24T17:04:45.171Z,89.23
2022-12-24T17:07:16.616Z,89.49
2022-12-24T17:09:43.710Z,88.91
2022-12-24T17:12:10.736Z,87.80
2022-12-24T17:14:39.180Z,88.22
2022-12-24T17:17:05.945Z,88.19
2022-12-24T17:19:32.688Z,88.98
2022-12-24T17:21:59.423Z,88.58
2022-12-24T17:24:26.084Z,88.98
2022-12-24T17:26:52.727Z,89.52
2022-12-24T17:29:19.402Z,89.75
2022-12-24T17:31:46.179Z,89.46
2022-12-24T17:34:12.932Z,89.63
2022-12-24T17:36:40.143Z,89.33
2022-12-24T17:39:06.878Z,89.35
2022-12-24T17:41:33.552Z,89.47
2022-12-24T17:44:00.254Z,89.04
2022-12-24T17:46:26.979Z,89.21
2022-12-24T17:48:55.066Z,89.45
2022-12-24T17:51:23.426Z,89.21
2022-12-24T17:53:50.771Z,88.74
2022-12-24T17:56:17.863Z,88.78
2022-12-24T17:58:47.034Z,89.76
2022-12-24T18:01:17.581Z,89.59
2022-12-24T18:03:45.466Z,89.43
2022-12-24T18:06:13.016Z,90.13
2022-12-24T18:08:41.840Z,89.17
2022-12-24T18:11:29.671Z,88.50
2022-12-24T18:13:57.234Z,89.70
2022-12-24T18:16:27.159Z,90.28
2022-12-24T18:18:54.603Z,90.45
2022-12-24T18:21:24.418Z,90.91
2022-12-24T18:23:52.224Z,90.99
2022-12-24T18:26:19.997Z,91.37
2022-12-24T18:28:47.468Z,92.23
2022-12-24T18:31:20.625Z,91.87
2022-12-24T18:33:51.743Z,91.08
2022-12-24T18:36:19.609Z,92.93
2022-12-24T18:38:47.699Z,92.73
2022-12-24T18:41:18.077Z,92.23
2022-12-24T18:43:44.807Z,92.27
2022-12-24T18:46:13.919Z,92.54
2022-12-24T18:48:40.831Z,92.49
2022-12-24T18:51:09.207Z,92.29
2022-12-24T18:53:38.540Z,92.29
2022-12-24T18:56:14.252Z,92.70
2022-12-24T18:58:42.468Z,92.81
2022-12-24T19:01:15.398Z,92.35
2022-12-24T19:03:42.706Z,92.36
2022-12-24T19:06:11.058Z,92.53
2022-12-24T19:08:57.016Z,93.49
2022-12-24T19:11:24.656Z,92.44
2022-12-24T19:13:52.908Z,91.76
2022-12-24T19:16:20.720Z,92.02
2022-12-24T19:18:48.944Z,91.79
2022-12-24T19:21:20.404Z,91.66
2022-12-24T19:23:51.732Z,91.69
2022-12-24T19:26:19.908Z,93.29
2022-12-24T19:28:50.182Z,90.69
2022-12-24T19:31:22.892Z,90.36
2022-12-24T19:33:51.895Z,91.52
2022-12-24T19:36:21.507Z,91.96
2022-12-24T19:38:48.579Z,91.88
2022-12-24T19:41:19.763Z,90.61
2022-12-24T19:43:51.399Z,91.54
2022-12-24T19:46:24.574Z,92.40
2022-12-24T19:48:54.041Z,91.46
2022-12-24T19:51:21.754Z,93.07
2022-12-24T19:53:49.561Z,92.37
2022-12-24T19:56:20.883Z,93.71
2022-12-24T19:58:48.712Z,93.29
2022-12-24T20:01:21.429Z,93.47
2022-12-24T20:03:49.920Z,92.17
2022-12-24T20:06:21.926Z,91.47
2022-12-24T20:08:49.276Z,91.24
2022-12-24T20:11:20.111Z,91.23
2022-12-24T20:13:47.833Z,90.92
2022-12-24T20:16:20.418Z,90.83
2022-12-24T20:18:54.942Z,90.76
2022-12-24T20:21:23.014Z,90.56
2022-12-24T20:23:49.864Z,90.58
2022-12-24T20:26:19.501Z,89.98
2022-12-24T20:28:47.009Z,90.85
2022-12-24T20:31:30.906Z,90.31
2022-12-24T20:34:00.294Z,90.10
2022-12-24T20:36:29.038Z,89.41
2022-12-24T20:38:58.157Z,90.75
2022-12-24T20:41:26.633Z,90.81
2022-12-24T20:43:53.641Z,89.40
2022-12-24T20:46:23.075Z,89.41
2022-12-24T20:48:50.477Z,90.63
2022-12-24T20:51:26.384Z,90.26
2022-12-24T20:53:55.111Z,90.32
2022-12-24T20:56:22.841Z,89.23
2022-12-24T20:58:50.288Z,90.49
2022-12-24T21:01:26.458Z,91.25
2022-12-24T21:03:55.488Z,92.72
2022-12-24T21:06:25.695Z,92.53
2022-12-24T21:08:53.628Z,94.24
2022-12-24T21:11:41.015Z,95.11
2022-12-24T21:14:10.122Z,94.50
2022-12-24T21:16:42.170Z,94.98
2022-12-24T21:19:14.607Z,95.25
2022-12-24T21:21:42.549Z,95.19
2022-12-24T21:24:10.737Z,94.82
2022-12-24T21:26:38.344Z,93.56
2022-12-24T21:29:08.541Z,93.69
2022-12-24T21:31:37.040Z,92.82
2022-12-24T21:34:04.615Z,93.79
2022-12-24T21:36:31.705Z,91.83
2022-12-24T21:39:00.143Z,91.75
2022-12-24T21:41:27.450Z,91.15
2022-12-24T21:44:00.595Z,91.68
2022-12-24T21:46:30.518Z,92.87
2022-12-24T21:49:15.863Z,92.14
2022-12-24T21:51:44.751Z,92.33
2022-12-24T21:54:23.727Z,93.11
2022-12-24T21:57:10.244Z,92.63
2022-12-24T21:59:37.402Z,92.35
2022-12-24T22:02:05.751Z,92.01
2022-12-24T22:04:33.323Z,92.40
2022-12-24T22:07:19.239Z,93.21
2022-12-24T22:10:04.595Z,92.66
2022-12-24T22:12:34.233Z,91.45
2022-12-24T22:15:05.801Z,92.39
2022-12-24T22:17:41.014Z,92.47
2022-12-24T22:20:08.511Z,93.07
2022-12-24T22:22:35.464Z,93.77
2022-12-24T22:25:02.663Z,92.29
2022-12-24T22:27:31.205Z,93.35
2022-12-24T22:29:59.312Z,94.15
2022-12-24T22:32:26.160Z,92.02
2022-12-24T22:34:55.315Z,92.13
2022-12-24T22:37:22.214Z,94.28
2022-12-24T22:39:49.081Z,94.82
2022-12-24T22:42:15.853Z,94.74
2022-12-24T22:44:42.797Z,91.56
2022-12-24T22:47:09.579Z,91.39
2022-12-24T22:49:38.285Z,91.70
2022-12-24T22:52:05.506Z,91.82
2022-12-24T22:54:32.983Z,92.29
2022-12-24T22:56:59.671Z,93.65
2022-12-24T22:59:26.500Z,94.34
2022-12-24T23:01:53.843Z,94.87
2022-12-24T23:04:20.789Z,94.11
2022-12-24T23:06:47.641Z,92.48
2022-12-24T23:09:15.884Z,91.69
2022-12-24T23:11:44.131Z,93.65
2022-12-24T23:14:35.442Z,94.19
2022-12-24T23:17:02.717Z,95.08
2022-12-24T23:19:31.882Z,94.38
2022-12-24T23:21:58.790Z,94.50
2022-12-24T23:24:27.362Z,93.80
2022-12-24T23:26:55.112Z,92.80
2022-12-24T23:29:22.026Z,92.30
2022-12-24T23:31:50.236Z,92.87
2022-12-24T23:34:23.116Z,92.26
2022-12-24T23:36:50.105Z,91.17
2022-12-24T23:39:23.313Z,90.25
2022-12-24T23:41:50.691Z,90.37
2022-12-24T23:44:19.835Z,91.34
2022-12-24T23:46:48.730Z,93.24
2022-12-24T23:49:15.628Z,94.25
2022-12-24T23:51:42.399Z,93.48
2022-12-24T23:54:09.193Z,93.25
2022-12-24T23:56:35.923Z,93.30
2022-12-24T23:59:03.743Z,89.91
